sensor_id;sensor_type;location;lat;lon;timestamp;pressure;altitude;pressure_sealevel;temperature;humidity
21185;BME280;18176;49.502;11.754;2023-04-02T00:04:12;96035.31;;;13.27;70.58
21185;BME280;18176;49.502;11.754;2023-04-02T00:08:23;96041.16;;;12.79;71.80
21185;BME280;18176;49.502;11.754;2023-04-02T00:12:25;96036.94;;;13.13;71.02
21185;BME280;18176;49.502;11.754;2023-04-02T00:16:25;96051.53;;;12.91;71.98
21185;BME280;18176;49.502;11.754;2023-04-02T00:20:35;96050.19;;;13.03;71.75
21185;BME280;18176;49.502;11.754;2023-04-02T00:24:38;96049.72;;;13.21;71.27
21185;BME280;18176;49.502;11.754;2023-04-02T00:28:39;96048.34;;;13.04;71.54
21185;BME280;18176;49.502;11.754;2023-04-02T00:32:39;96059.81;;;13.14;70.77
21185;BME280;18176;49.502;11.754;2023-04-02T00:36:45;96063.75;;;12.97;71.46
21185;BME280;18176;49.502;11.754;2023-04-02T00:40:46;96061.91;;;13.12;70.42
21185;BME280;18176;49.502;11.754;2023-04-02T00:44:48;96067.78;;;13.29;70.11
21185;BME280;18176;49.502;11.754;2023-04-02T00:48:57;96059.78;;;13.24;70.01
21185;BME280;18176;49.502;11.754;2023-04-02T00:53:10;96064.59;;;13.38;69.76
21185;BME280;18176;49.502;11.754;2023-04-02T00:57:16;96060.84;;;13.28;70.02
21185;BME280;18176;49.502;11.754;2023-04-02T01:01:24;96070.72;;;13.28;70.07
21185;BME280;18176;49.502;11.754;2023-04-02T01:05:25;96069.38;;;13.20;70.68
21185;BME280;18176;49.502;11.754;2023-04-02T01:09:48;96079.47;;;13.33;70.50
21185;BME280;18176;49.502;11.754;2023-04-02T01:14:01;96076.81;;;12.98;71.16
21185;BME280;18176;49.502;11.754;2023-04-02T01:18:27;96082.66;;;13.10;71.66
21185;BME280;18176;49.502;11.754;2023-04-02T01:22:36;96084.81;;;13.23;70.71
21185;BME280;18176;49.502;11.754;2023-04-02T01:26:53;96080.81;;;13.36;70.44
21185;BME280;18176;49.502;11.754;2023-04-02T01:31:01;96081.34;;;13.28;70.19
21185;BME280;18176;49.502;11.754;2023-04-02T01:35:04;96086.13;;;13.21;71.02
21185;BME280;18176;49.502;11.754;2023-04-02T01:39:17;96087.72;;;13.42;70.41
21185;BME280;18176;49.502;11.754;2023-04-02T01:43:29;96088.53;;;13.38;70.43
21185;BME280;18176;49.502;11.754;2023-04-02T01:47:37;96098.34;;;13.47;69.92
21185;BME280;18176;49.502;11.754;2023-04-02T01:51:42;96097.81;;;13.55;69.78
21185;BME280;18176;49.502;11.754;2023-04-02T01:55:48;96107.16;;;13.38;70.39
21185;BME280;18176;49.502;11.754;2023-04-02T01:59:50;96106.88;;;13.34;70.39
21185;BME280;18176;49.502;11.754;2023-04-02T02:03:54;96106.09;;;13.49;70.13
21185;BME280;18176;49.502;11.754;2023-04-02T02:07:56;96110.31;;;13.70;69.38
21185;BME280;18176;49.502;11.754;2023-04-02T02:11:59;96114.84;;;13.69;69.26
21185;BME280;18176;49.502;11.754;2023-04-02T02:16:05;96109.81;;;13.32;70.22
21185;BME280;18176;49.502;11.754;2023-04-02T02:20:10;96119.91;;;13.41;69.99
21185;BME280;18176;49.502;11.754;2023-04-02T02:24:19;96119.38;;;13.28;70.59
21185;BME280;18176;49.502;11.754;2023-04-02T02:28:24;96121.50;;;13.26;70.91
21185;BME280;18176;49.502;11.754;2023-04-02T02:32:29;96135.31;;;13.08;72.22
21185;BME280;18176;49.502;11.754;2023-04-02T02:36:41;96128.16;;;13.19;71.65
21185;BME280;18176;49.502;11.754;2023-04-02T02:40:49;96131.59;;;13.19;71.93
21185;BME280;18176;49.502;11.754;2023-04-02T02:44:56;96131.63;;;13.40;71.07
21185;BME280;18176;49.502;11.754;2023-04-02T02:49:00;96139.59;;;13.65;69.81
21185;BME280;18176;49.502;11.754;2023-04-02T02:53:18;96147.06;;;13.63;69.85
21185;BME280;18176;49.502;11.754;2023-04-02T02:57:25;96151.84;;;13.56;69.97
21185;BME280;18176;49.502;11.754;2023-04-02T03:01:28;96150.22;;;13.45;70.51
21185;BME280;18176;49.502;11.754;2023-04-02T03:05:34;96157.44;;;13.59;69.76
21185;BME280;18176;49.502;11.754;2023-04-02T03:09:56;96160.88;;;13.75;68.99
21185;BME280;18176;49.502;11.754;2023-04-02T03:14:16;96170.47;;;13.51;69.94
21185;BME280;18176;49.502;11.754;2023-04-02T03:18:36;96168.06;;;13.59;69.48
21185;BME280;18176;49.502;11.754;2023-04-02T03:22:46;96181.88;;;13.81;69.04
21185;BME280;18176;49.502;11.754;2023-04-02T03:27:00;96153.16;;;13.23;70.45
21185;BME280;18176;49.502;11.754;2023-04-02T03:31:08;96191.25;;;13.54;69.88
21185;BME280;18176;49.502;11.754;2023-04-02T03:35:21;96188.53;;;13.28;70.72
21185;BME280;18176;49.502;11.754;2023-04-02T03:39:32;96194.97;;;13.38;70.71
21185;BME280;18176;49.502;11.754;2023-04-02T03:43:43;96186.44;;;13.51;70.29
21185;BME280;18176;49.502;11.754;2023-04-02T03:47:52;96199.50;;;13.42;70.35
21185;BME280;18176;49.502;11.754;2023-04-02T03:52:02;96196.78;;;13.22;71.18
21185;BME280;18176;49.502;11.754;2023-04-02T03:56:06;96200.25;;;13.43;70.69
21185;BME280;18176;49.502;11.754;2023-04-02T04:00:18;96206.13;;;13.45;70.69
21185;BME280;18176;49.502;11.754;2023-04-02T04:04:28;96206.66;;;13.42;71.02
21185;BME280;18176;49.502;11.754;2023-04-02T04:08:35;96211.97;;;13.52;70.32
21185;BME280;18176;49.502;11.754;2023-04-02T04:12:42;96215.69;;;13.25;71.20
21185;BME280;18176;49.502;11.754;2023-04-02T04:17:00;96217.31;;;13.36;70.95
21185;BME280;18176;49.502;11.754;2023-04-02T04:21:15;96220.50;;;13.38;70.20
21185;BME280;18176;49.502;11.754;2023-04-02T04:25:37;96228.50;;;13.64;70.16
21185;BME280;18176;49.502;11.754;2023-04-02T04:29:52;96243.34;;;13.24;70.61
21185;BME280;18176;49.502;11.754;2023-04-02T04:34:04;96241.41;;;13.00;71.99
21185;BME280;18176;49.502;11.754;2023-04-02T04:38:12;96242.78;;;13.12;71.55
21185;BME280;18176;49.502;11.754;2023-04-02T04:42:20;96253.50;;;13.53;70.51
21185;BME280;18176;49.502;11.754;2023-04-02T04:46:30;96259.31;;;13.29;70.53
21185;BME280;18176;49.502;11.754;2023-04-02T04:50:45;96259.91;;;13.67;69.54
21185;BME280;18176;49.502;11.754;2023-04-02T04:54:47;96273.72;;;13.38;70.63
21185;BME280;18176;49.502;11.754;2023-04-02T04:58:59;96275.25;;;13.24;71.33
21185;BME280;18176;49.502;11.754;2023-04-02T05:03:12;96279.56;;;13.30;70.53
21185;BME280;18176;49.502;11.754;2023-04-02T05:07:25;96281.41;;;13.40;70.42
21185;BME280;18176;49.502;11.754;2023-04-02T05:11:33;96284.66;;;13.72;69.26
21185;BME280;18176;49.502;11.754;2023-04-02T05:15:42;96285.19;;;13.64;69.27
21185;BME280;18176;49.502;11.754;2023-04-02T05:19:54;96282.81;;;13.78;68.84
21185;BME280;18176;49.502;11.754;2023-04-02T05:28:47;96315.84;;;13.72;69.36
21185;BME280;18176;49.502;11.754;2023-04-02T05:32:57;96316.38;;;13.79;69.61
21185;BME280;18176;49.502;11.754;2023-04-02T05:37:02;96324.88;;;13.71;69.54
21185;BME280;18176;49.502;11.754;2023-04-02T05:41:20;96334.97;;;13.54;70.24
21185;BME280;18176;49.502;11.754;2023-04-02T05:45:32;96333.91;;;13.60;70.27
21185;BME280;18176;49.502;11.754;2023-04-02T05:49:46;96336.59;;;13.65;70.25
21185;BME280;18176;49.502;11.754;2023-04-02T05:53:53;96340.63;;;13.87;69.77
21185;BME280;18176;49.502;11.754;2023-04-02T05:58:03;96342.47;;;13.72;70.47
21185;BME280;18176;49.502;11.754;2023-04-02T06:02:34;96350.19;;;13.78;70.04
21185;BME280;18176;49.502;11.754;2023-04-02T06:06:54;96356.88;;;13.86;69.77
21185;BME280;18176;49.502;11.754;2023-04-02T06:11:05;96364.81;;;13.76;70.20
21185;BME280;18176;49.502;11.754;2023-04-02T06:15:16;96362.16;;;13.71;70.79
21185;BME280;18176;49.502;11.754;2023-04-02T06:19:26;96369.59;;;13.69;70.97
21185;BME280;18176;49.502;11.754;2023-04-02T06:23:37;96376.53;;;13.75;70.30
21185;BME280;18176;49.502;11.754;2023-04-02T06:27:42;96379.25;;;13.95;69.96
21185;BME280;18176;49.502;11.754;2023-04-02T06:31:55;96386.06;;;13.56;71.18
21185;BME280;18176;49.502;11.754;2023-04-02T06:35:59;96387.09;;;13.50;71.96
21185;BME280;18176;49.502;11.754;2023-04-02T06:40:23;96401.06;;;13.87;70.96
21185;BME280;18176;49.502;11.754;2023-04-02T06:44:31;96407.44;;;13.76;71.07
21185;BME280;18176;49.502;11.754;2023-04-02T06:49:09;96412.75;;;13.76;71.32
21185;BME280;18176;49.502;11.754;2023-04-02T06:53:20;96423.97;;;13.83;70.87
21185;BME280;18176;49.502;11.754;2023-04-02T06:57:24;96429.78;;;13.80;70.86
21185;BME280;18176;49.502;11.754;2023-04-02T07:01:28;96433.50;;;13.69;71.76
21185;BME280;18176;49.502;11.754;2023-04-02T07:05:34;96398.91;;;13.84;70.77
21185;BME280;18176;49.502;11.754;2023-04-02T07:09:38;96446.34;;;13.87;70.86
21185;BME280;18176;49.502;11.754;2023-04-02T07:13:39;96441.63;;;14.24;70.21
21185;BME280;18176;49.502;11.754;2023-04-02T07:17:42;96445.00;;;13.89;71.26
21185;BME280;18176;49.502;11.754;2023-04-02T07:21:48;96453.28;;;13.88;71.52
21185;BME280;18176;49.502;11.754;2023-04-02T07:25:53;96462.88;;;13.94;71.77
21185;BME280;18176;49.502;11.754;2023-04-02T07:29:54;96470.63;;;14.05;71.44
21185;BME280;18176;49.502;11.754;2023-04-02T07:33:56;96480.50;;;14.15;70.89
21185;BME280;18176;49.502;11.754;2023-04-02T07:38:00;96495.22;;;13.61;68.31
21185;BME280;18176;49.502;11.754;2023-04-02T07:42:01;96496.66;;;12.95;69.00
21185;BME280;18176;49.502;11.754;2023-04-02T07:46:02;96505.56;;;12.47;70.00
21185;BME280;18176;49.502;11.754;2023-04-02T07:50:05;96520.91;;;12.40;70.17
21185;BME280;18176;49.502;11.754;2023-04-02T07:54:08;96522.66;;;12.56;69.52
21185;BME280;18176;49.502;11.754;2023-04-02T07:58:09;96527.84;;;12.46;69.19
21185;BME280;18176;49.502;11.754;2023-04-02T08:02:18;96538.53;;;12.78;68.53
21185;BME280;18176;49.502;11.754;2023-04-02T08:06:20;96550.31;;;12.60;69.04
21185;BME280;18176;49.502;11.754;2023-04-02T08:10:23;96548.25;;;12.67;69.02
21185;BME280;18176;49.502;11.754;2023-04-02T08:14:24;96555.84;;;12.85;68.61
21185;BME280;18176;49.502;11.754;2023-04-02T08:18:24;96562.88;;;12.96;69.06
21185;BME280;18176;49.502;11.754;2023-04-02T08:22:25;96580.72;;;13.01;68.50
21185;BME280;18176;49.502;11.754;2023-04-02T08:26:28;96583.03;;;12.92;67.97
21185;BME280;18176;49.502;11.754;2023-04-02T08:30:29;96596.03;;;12.62;68.02
21185;BME280;18176;49.502;11.754;2023-04-02T08:34:30;96599.69;;;12.08;68.90
21185;BME280;18176;49.502;11.754;2023-04-02T08:38:30;96619.75;;;11.98;69.01
21185;BME280;18176;49.502;11.754;2023-04-02T08:42:39;96617.41;;;12.24;68.33
21185;BME280;18176;49.502;11.754;2023-04-02T08:46:46;96629.34;;;12.21;68.78
21185;BME280;18176;49.502;11.754;2023-04-02T08:50:49;96629.69;;;12.30;69.39
21185;BME280;18176;49.502;11.754;2023-04-02T08:54:50;96630.25;;;12.32;68.52
21185;BME280;18176;49.502;11.754;2023-04-02T08:58:59;96645.50;;;12.41;68.56
21185;BME280;18176;49.502;11.754;2023-04-02T09:03:07;96649.66;;;12.32;68.50
21185;BME280;18176;49.502;11.754;2023-04-02T09:07:13;96649.44;;;12.34;67.88
21185;BME280;18176;49.502;11.754;2023-04-02T09:11:24;96658.13;;;12.51;67.11
21185;BME280;18176;49.502;11.754;2023-04-02T09:15:33;96670.16;;;12.37;67.58
21185;BME280;18176;49.502;11.754;2023-04-02T09:19:37;96679.19;;;12.79;67.52
21185;BME280;18176;49.502;11.754;2023-04-02T09:23:41;96687.34;;;12.99;66.80
21185;BME280;18176;49.502;11.754;2023-04-02T09:27:46;96692.88;;;13.14;66.00
21185;BME280;18176;49.502;11.754;2023-04-02T09:31:58;96698.81;;;12.78;65.58
21185;BME280;18176;49.502;11.754;2023-04-02T09:36:06;96708.47;;;13.06;65.86
21185;BME280;18176;49.502;11.754;2023-04-02T09:40:23;96712.31;;;12.93;66.00
21185;BME280;18176;49.502;11.754;2023-04-02T09:44:27;96727.94;;;12.90;65.74
21185;BME280;18176;49.502;11.754;2023-04-02T09:48:34;96729.00;;;12.67;65.17
21185;BME280;18176;49.502;11.754;2023-04-02T09:52:36;96742.44;;;12.77;64.38
21185;BME280;18176;49.502;11.754;2023-04-02T09:56:44;96744.25;;;12.33;66.30
21185;BME280;18176;49.502;11.754;2023-04-02T10:00:57;96758.47;;;12.44;66.10
21185;BME280;18176;49.502;11.754;2023-04-02T10:05:03;96759.03;;;12.46;66.29
21185;BME280;18176;49.502;11.754;2023-04-02T10:09:27;96755.38;;;12.14;66.98
21185;BME280;18176;49.502;11.754;2023-04-02T10:13:34;96758.97;;;12.41;65.85
21185;BME280;18176;49.502;11.754;2023-04-02T10:17:39;96780.16;;;12.36;66.38
21185;BME280;18176;49.502;11.754;2023-04-02T10:21:43;96776.63;;;12.30;66.61
21185;BME280;18176;49.502;11.754;2023-04-02T10:25:56;96781.78;;;12.20;66.71
21185;BME280;18176;49.502;11.754;2023-04-02T10:30:17;96796.94;;;12.20;66.52
21185;BME280;18176;49.502;11.754;2023-04-02T10:34:23;96792.81;;;12.12;66.36
21185;BME280;18176;49.502;11.754;2023-04-02T10:38:42;96798.84;;;12.24;67.22
21185;BME280;18176;49.502;11.754;2023-04-02T10:43:03;96807.22;;;12.33;66.65
21185;BME280;18176;49.502;11.754;2023-04-02T10:47:24;96809.16;;;12.21;66.65
21185;BME280;18176;49.502;11.754;2023-04-02T10:51:38;96817.94;;;12.21;67.41
21185;BME280;18176;49.502;11.754;2023-04-02T10:55:50;96838.28;;;12.16;67.14
21185;BME280;18176;49.502;11.754;2023-04-02T10:59:55;96837.06;;;12.78;66.60
21185;BME280;18176;49.502;11.754;2023-04-02T11:04:12;96853.03;;;12.78;65.67
21185;BME280;18176;49.502;11.754;2023-04-02T11:08:22;96853.81;;;12.95;65.93
21185;BME280;18176;49.502;11.754;2023-04-02T11:12:39;96854.09;;;13.15;64.63
21185;BME280;18176;49.502;11.754;2023-04-02T11:16:42;96858.66;;;13.20;63.58
21185;BME280;18176;49.502;11.754;2023-04-02T11:21:03;96873.03;;;12.64;64.00
21185;BME280;18176;49.502;11.754;2023-04-02T11:25:21;96876.13;;;12.56;65.35
21185;BME280;18176;49.502;11.754;2023-04-02T11:29:26;96886.34;;;12.31;65.07
21185;BME280;18176;49.502;11.754;2023-04-02T11:33:39;96888.97;;;11.97;66.42
21185;BME280;18176;49.502;11.754;2023-04-02T11:37:47;96895.84;;;12.10;65.93
21185;BME280;18176;49.502;11.754;2023-04-02T11:42:27;96896.91;;;12.26;66.43
21185;BME280;18176;49.502;11.754;2023-04-02T11:47:14;96912.44;;;12.34;65.81
21185;BME280;18176;49.502;11.754;2023-04-02T11:51:47;96907.84;;;12.13;65.88
21185;BME280;18176;49.502;11.754;2023-04-02T11:56:08;96920.47;;;12.39;66.10
21185;BME280;18176;49.502;11.754;2023-04-02T12:01:00;96921.59;;;12.10;66.96
21185;BME280;18176;49.502;11.754;2023-04-02T12:05:21;96930.53;;;11.75;66.91
21185;BME280;18176;49.502;11.754;2023-04-02T12:09:27;96943.94;;;11.69;67.85
21185;BME280;18176;49.502;11.754;2023-04-02T12:13:50;96955.19;;;11.36;68.37
21185;BME280;18176;49.502;11.754;2023-04-02T12:18:08;96937.47;;;11.13;69.36
21185;BME280;18176;49.502;11.754;2023-04-02T12:22:20;96952.31;;;11.26;68.67
21185;BME280;18176;49.502;11.754;2023-04-02T12:26:34;96953.44;;;11.42;68.22
21185;BME280;18176;49.502;11.754;2023-04-02T12:30:44;96931.00;;;11.21;68.50
21185;BME280;18176;49.502;11.754;2023-04-02T12:34:45;96970.78;;;11.33;68.60
21185;BME280;18176;49.502;11.754;2023-04-02T12:38:52;96970.63;;;11.39;68.72
21185;BME280;18176;49.502;11.754;2023-04-02T12:42:54;96985.41;;;11.23;67.98
21185;BME280;18176;49.502;11.754;2023-04-02T12:46:55;96979.44;;;11.05;68.55
21185;BME280;18176;49.502;11.754;2023-04-02T12:50:58;96980.34;;;11.22;68.15
21185;BME280;18176;49.502;11.754;2023-04-02T12:55:05;96997.38;;;11.49;66.86
21185;BME280;18176;49.502;11.754;2023-04-02T12:59:29;97014.91;;;11.50;67.15
21185;BME280;18176;49.502;11.754;2023-04-02T13:03:32;97015.78;;;11.79;66.76
21185;BME280;18176;49.502;11.754;2023-04-02T13:07:33;97001.78;;;11.95;65.49
21185;BME280;18176;49.502;11.754;2023-04-02T13:11:38;97018.25;;;11.57;65.74
21185;BME280;18176;49.502;11.754;2023-04-02T13:15:39;97021.81;;;11.74;65.36
21185;BME280;18176;49.502;11.754;2023-04-02T13:19:41;97017.91;;;11.42;65.66
21185;BME280;18176;49.502;11.754;2023-04-02T13:23:43;97032.91;;;11.48;65.88
21185;BME280;18176;49.502;11.754;2023-04-02T13:27:46;97038.22;;;11.25;66.06
21185;BME280;18176;49.502;11.754;2023-04-02T13:31:47;97024.72;;;11.03;65.42
21185;BME280;18176;49.502;11.754;2023-04-02T13:35:48;97031.78;;;10.98;65.95
21185;BME280;18176;49.502;11.754;2023-04-02T13:39:48;97035.44;;;11.43;65.01
21185;BME280;18176;49.502;11.754;2023-04-02T13:43:52;97045.00;;;11.67;64.58
21185;BME280;18176;49.502;11.754;2023-04-02T13:47:54;97048.84;;;11.71;63.60
21185;BME280;18176;49.502;11.754;2023-04-02T13:52:00;97054.94;;;11.72;63.31
21185;BME280;18176;49.502;11.754;2023-04-02T13:56:02;97059.31;;;11.66;63.73
21185;BME280;18176;49.502;11.754;2023-04-02T14:00:09;97058.06;;;11.46;63.80
21185;BME280;18176;49.502;11.754;2023-04-02T14:04:13;97053.88;;;11.61;62.58
21185;BME280;18176;49.502;11.754;2023-04-02T14:08:28;97067.88;;;11.45;62.83
21185;BME280;18176;49.502;11.754;2023-04-02T14:12:56;97071.91;;;11.59;61.83
21185;BME280;18176;49.502;11.754;2023-04-02T14:17:17;97074.81;;;11.69;61.68
21185;BME280;18176;49.502;11.754;2023-04-02T14:21:37;97078.94;;;11.54;62.34
21185;BME280;18176;49.502;11.754;2023-04-02T14:25:51;97093.94;;;11.37;61.04
21185;BME280;18176;49.502;11.754;2023-04-02T14:30:00;97096.13;;;11.40;61.28
21185;BME280;18176;49.502;11.754;2023-04-02T14:34:18;97093.50;;;11.28;62.02
21185;BME280;18176;49.502;11.754;2023-04-02T14:38:28;97101.78;;;11.43;60.11
21185;BME280;18176;49.502;11.754;2023-04-02T14:42:40;97100.50;;;11.57;59.53
21185;BME280;18176;49.502;11.754;2023-04-02T14:46:43;97097.50;;;11.88;58.50
21185;BME280;18176;49.502;11.754;2023-04-02T14:50:50;97111.56;;;12.01;58.11
21185;BME280;18176;49.502;11.754;2023-04-02T14:54:58;97119.84;;;12.16;58.19
21185;BME280;18176;49.502;11.754;2023-04-02T14:59:18;97124.41;;;12.32;57.24
21185;BME280;18176;49.502;11.754;2023-04-02T15:03:23;97106.19;;;12.24;56.20
21185;BME280;18176;49.502;11.754;2023-04-02T15:07:32;97137.41;;;12.17;55.87
21185;BME280;18176;49.502;11.754;2023-04-02T15:11:45;97140.75;;;12.12;55.37
21185;BME280;18176;49.502;11.754;2023-04-02T15:16:07;97141.31;;;12.26;54.91
21185;BME280;18176;49.502;11.754;2023-04-02T15:20:14;97151.56;;;12.45;55.04
21185;BME280;18176;49.502;11.754;2023-04-02T15:24:31;97155.09;;;12.51;53.40
21185;BME280;18176;49.502;11.754;2023-04-02T15:28:39;97155.75;;;12.58;54.63
21185;BME280;18176;49.502;11.754;2023-04-02T15:32:43;97152.75;;;12.26;54.35
21185;BME280;18176;49.502;11.754;2023-04-02T15:37:04;97158.63;;;12.28;53.89
21185;BME280;18176;49.502;11.754;2023-04-02T15:41:19;97165.09;;;12.21;54.32
21185;BME280;18176;49.502;11.754;2023-04-02T15:45:31;97165.81;;;12.05;54.43
21185;BME280;18176;49.502;11.754;2023-04-02T15:49:41;97168.84;;;11.96;53.40
21185;BME280;18176;49.502;11.754;2023-04-02T15:53:52;97184.41;;;12.05;53.93
21185;BME280;18176;49.502;11.754;2023-04-02T15:58:19;97188.72;;;11.82;53.98
21185;BME280;18176;49.502;11.754;2023-04-02T16:02:45;97185.75;;;11.49;54.77
21185;BME280;18176;49.502;11.754;2023-04-02T16:07:11;97194.28;;;11.51;53.67
21185;BME280;18176;49.502;11.754;2023-04-02T16:11:18;97206.09;;;11.67;53.92
21185;BME280;18176;49.502;11.754;2023-04-02T16:15:32;97209.69;;;11.72;53.34
21185;BME280;18176;49.502;11.754;2023-04-02T16:19:40;97218.09;;;11.58;54.01
21185;BME280;18176;49.502;11.754;2023-04-02T16:23:48;97220.63;;;11.64;53.62
21185;BME280;18176;49.502;11.754;2023-04-02T16:27:57;97227.00;;;11.75;53.47
21185;BME280;18176;49.502;11.754;2023-04-02T16:32:13;97234.75;;;11.99;52.28
21185;BME280;18176;49.502;11.754;2023-04-02T16:36:36;97239.50;;;11.97;52.13
21185;BME280;18176;49.502;11.754;2023-04-02T16:40:52;97227.91;;;11.57;51.90
21185;BME280;18176;49.502;11.754;2023-04-02T16:45:22;97257.97;;;11.69;52.34
21185;BME280;18176;49.502;11.754;2023-04-02T16:49:35;97261.09;;;11.48;52.51
21185;BME280;18176;49.502;11.754;2023-04-02T16:53:50;97267.41;;;11.06;53.89
21185;BME280;18176;49.502;11.754;2023-04-02T16:58:13;97294.41;;;10.48;54.96
21185;BME280;18176;49.502;11.754;2023-04-02T17:02:33;97301.03;;;10.57;55.14
21185;BME280;18176;49.502;11.754;2023-04-02T17:06:55;97304.16;;;10.73;55.19
21185;BME280;18176;49.502;11.754;2023-04-02T17:11:04;97308.91;;;11.00;54.41
21185;BME280;18176;49.502;11.754;2023-04-02T17:15:14;97307.94;;;10.95;54.47
21185;BME280;18176;49.502;11.754;2023-04-02T17:19:29;97321.81;;;10.61;55.03
21185;BME280;18176;49.502;11.754;2023-04-02T17:23:46;97303.34;;;10.29;55.68
21185;BME280;18176;49.502;11.754;2023-04-02T17:27:54;97343.25;;;10.34;55.57
21185;BME280;18176;49.502;11.754;2023-04-02T17:32:00;97343.06;;;10.54;55.44
21185;BME280;18176;49.502;11.754;2023-04-02T17:36:20;97353.41;;;10.37;56.09
21185;BME280;18176;49.502;11.754;2023-04-02T17:40:32;97365.09;;;10.30;56.07
21185;BME280;18176;49.502;11.754;2023-04-02T17:45:01;97371.22;;;9.99;55.25
21185;BME280;18176;49.502;11.754;2023-04-02T17:49:17;97382.84;;;9.98;54.94
21185;BME280;18176;49.502;11.754;2023-04-02T17:53:34;97386.69;;;9.71;54.88
21185;BME280;18176;49.502;11.754;2023-04-02T17:57:56;97398.25;;;9.76;54.75
21185;BME280;18176;49.502;11.754;2023-04-02T18:02:22;97405.66;;;9.61;54.73
21185;BME280;18176;49.502;11.754;2023-04-02T18:06:35;97410.72;;;9.63;55.11
21185;BME280;18176;49.502;11.754;2023-04-02T18:10:51;97418.25;;;9.66;54.46
21185;BME280;18176;49.502;11.754;2023-04-02T18:15:38;97438.22;;;9.62;53.80
21185;BME280;18176;49.502;11.754;2023-04-02T18:19:48;97453.59;;;9.34;53.95
21185;BME280;18176;49.502;11.754;2023-04-02T18:28:41;97456.78;;;9.49;53.73
21185;BME280;18176;49.502;11.754;2023-04-02T18:33:18;97466.41;;;9.30;53.30
21185;BME280;18176;49.502;11.754;2023-04-02T18:37:31;97474.78;;;9.27;53.32
21185;BME280;18176;49.502;11.754;2023-04-02T18:41:47;97481.06;;;9.39;52.36
21185;BME280;18176;49.502;11.754;2023-04-02T18:45:57;97485.19;;;9.15;52.91
21185;BME280;18176;49.502;11.754;2023-04-02T18:50:14;97495.34;;;9.18;53.14
21185;BME280;18176;49.502;11.754;2023-04-02T18:54:22;97494.13;;;9.14;52.87
21185;BME280;18176;49.502;11.754;2023-04-02T18:58:33;97507.94;;;9.16;52.50
21185;BME280;18176;49.502;11.754;2023-04-02T19:02:43;97505.53;;;9.08;53.09
21185;BME280;18176;49.502;11.754;2023-04-02T19:06:59;97513.47;;;9.08;53.75
21185;BME280;18176;49.502;11.754;2023-04-02T19:11:08;97515.28;;;9.28;52.51
21185;BME280;18176;49.502;11.754;2023-04-02T19:15:17;97526.00;;;9.33;52.80
21185;BME280;18176;49.502;11.754;2023-04-02T19:19:20;97523.88;;;8.90;53.21
21185;BME280;18176;49.502;11.754;2023-04-02T19:23:54;97525.91;;;8.88;53.40
21185;BME280;18176;49.502;11.754;2023-04-02T19:28:11;97537.22;;;9.22;53.58
21185;BME280;18176;49.502;11.754;2023-04-02T19:32:26;97545.75;;;9.24;52.85
21185;BME280;18176;49.502;11.754;2023-04-02T19:36:44;97553.88;;;9.42;53.21
21185;BME280;18176;49.502;11.754;2023-04-02T19:40:56;97551.50;;;9.21;52.77
21185;BME280;18176;49.502;11.754;2023-04-02T19:45:00;97548.59;;;9.29;51.95
21185;BME280;18176;49.502;11.754;2023-04-02T19:49:07;97560.81;;;9.30;52.23
21185;BME280;18176;49.502;11.754;2023-04-02T19:53:09;97563.69;;;9.08;52.54
21185;BME280;18176;49.502;11.754;2023-04-02T19:57:15;97569.41;;;8.92;52.24
21185;BME280;18176;49.502;11.754;2023-04-02T20:01:16;97567.97;;;9.03;52.41
21185;BME280;18176;49.502;11.754;2023-04-02T20:05:18;97571.41;;;9.03;51.26
21185;BME280;18176;49.502;11.754;2023-04-02T20:09:19;97567.16;;;9.15;51.71
21185;BME280;18176;49.502;11.754;2023-04-02T20:13:23;97584.81;;;8.89;51.76
21185;BME280;18176;49.502;11.754;2023-04-02T20:17:23;97590.53;;;9.18;50.91
21185;BME280;18176;49.502;11.754;2023-04-02T20:21:27;97589.50;;;9.26;50.91
21185;BME280;18176;49.502;11.754;2023-04-02T20:25:36;97602.31;;;9.09;50.73
21185;BME280;18176;49.502;11.754;2023-04-02T20:29:39;97612.06;;;8.89;50.80
21185;BME280;18176;49.502;11.754;2023-04-02T20:33:41;97617.78;;;8.86;50.90
21185;BME280;18176;49.502;11.754;2023-04-02T20:37:44;97625.88;;;8.59;51.71
21185;BME280;18176;49.502;11.754;2023-04-02T20:41:47;97623.81;;;8.54;51.53
21185;BME280;18176;49.502;11.754;2023-04-02T20:45:58;97637.28;;;8.72;51.55
21185;BME280;18176;49.502;11.754;2023-04-02T20:50:01;97642.75;;;8.71;51.29
21185;BME280;18176;49.502;11.754;2023-04-02T20:54:04;97642.97;;;8.76;51.79
21185;BME280;18176;49.502;11.754;2023-04-02T20:58:04;97645.44;;;9.03;50.57
21185;BME280;18176;49.502;11.754;2023-04-02T21:02:09;97655.16;;;8.70;51.04
21185;BME280;18176;49.502;11.754;2023-04-02T21:06:13;97655.72;;;8.59;51.67
21185;BME280;18176;49.502;11.754;2023-04-02T21:10:15;97654.47;;;8.48;52.24
21185;BME280;18176;49.502;11.754;2023-04-02T21:14:16;97664.56;;;8.32;52.39
21185;BME280;18176;49.502;11.754;2023-04-02T21:18:19;97655.78;;;8.25;52.41
21185;BME280;18176;49.502;11.754;2023-04-02T21:22:20;97670.13;;;8.57;51.48
21185;BME280;18176;49.502;11.754;2023-04-02T21:26:23;97675.47;;;8.70;50.73
21185;BME280;18176;49.502;11.754;2023-04-02T21:30:24;97680.03;;;8.35;52.43
21185;BME280;18176;49.502;11.754;2023-04-02T21:34:27;97683.56;;;8.55;51.62
21185;BME280;18176;49.502;11.754;2023-04-02T21:38:28;97664.25;;;8.07;52.13
21185;BME280;18176;49.502;11.754;2023-04-02T21:42:28;97691.47;;;8.14;52.20
21185;BME280;18176;49.502;11.754;2023-04-02T21:46:33;97680.25;;;8.40;51.23
21185;BME280;18176;49.502;11.754;2023-04-02T21:50:37;97683.16;;;8.58;50.77
21185;BME280;18176;49.502;11.754;2023-04-02T21:54:38;97682.44;;;9.03;50.37
21185;BME280;18176;49.502;11.754;2023-04-02T21:58:38;97684.88;;;8.98;50.30
21185;BME280;18176;49.502;11.754;2023-04-02T22:02:40;97695.03;;;8.95;50.38